Flugplatz Finsterwalde/Heinrichsruh

Für EDAS sind keine METAR/TAF Berichte vorhanden.
Es werden die Flugwettermeldungen vom Flugplatz Holzdorf Airport in 37 km Entfernung angezeigt.

Bericht für ETSH

vom 23.05. um 19:20 UTC

kein Wind

Sichtweite 10 km oder mehr

aufgebrochene Bewölkung in 27000 ft

Temperatur 13.0°C

Taupunkt 6.0°C

Luftfeuchtigkeit 62%

Luftdruck 1017 hPa

ETSH 231920Z 00000KT 9999 BKN270 13/06 Q1017 BLU+BLU+

Prognose für ETSH

vom 23.05. um 13:13 UTC

Zwischen 14:00 UTC und 23:00 UTC

Wind 8 kt aus 320°

Sichtweite 10 km oder mehr

keine signifikanten Wettererscheinungen

gering bewölkt in 5000 ft

aufgelockert bewölkt in 25000 ft

TAF ETSH 231313Z 2314/2323 32008KT 9999 NSW FEW050 SCT250
Impressum